sensor_id;sensor_type;location;lat;lon;timestamp;P1;durP1;ratioP1;P2;durP2;ratioP2
80910;SDS011;70359;51.420;7.032;2024-01-16T00:00:25;2.2;;;2;;
80910;SDS011;70359;51.420;7.032;2024-01-16T00:02:50;2.2;;;2;;
80910;SDS011;70359;51.420;7.032;2024-01-16T00:05:19;3;;;2.3;;
80910;SDS011;70359;51.420;7.032;2024-01-16T00:07:40;3;;;2.3;;
80910;SDS011;70359;51.420;7.032;2024-01-16T00:10:06;2.5;;;2.3;;
80910;SDS011;70359;51.420;7.032;2024-01-16T00:12:30;2.5;;;2.3;;
80910;SDS011;70359;51.420;7.032;2024-01-16T00:14:55;2.2;;;2;;
80910;SDS011;70359;51.420;7.032;2024-01-16T00:17:20;2.2;;;2;;
80910;SDS011;70359;51.420;7.032;2024-01-16T00:19:45;2.1;;;1.9;;
80910;SDS011;70359;51.420;7.032;2024-01-16T00:22:14;2.1;;;1.9;;
80910;SDS011;70359;51.420;7.032;2024-01-16T00:24:35;4.8;;;2.3;;
80910;SDS011;70359;51.420;7.032;2024-01-16T00:27:00;4.8;;;2.3;;
80910;SDS011;70359;51.420;7.032;2024-01-16T00:29:25;2.5;;;1.8;;
80910;SDS011;70359;51.420;7.032;2024-01-16T00:31:50;2.5;;;1.8;;
80910;SDS011;70359;51.420;7.032;2024-01-16T00:34:15;1.8;;;1.7;;
80910;SDS011;70359;51.420;7.032;2024-01-16T00:36:40;1.8;;;1.7;;
80910;SDS011;70359;51.420;7.032;2024-01-16T00:39:05;3.6;;;1.8;;
80910;SDS011;70359;51.420;7.032;2024-01-16T00:41:30;3.6;;;1.8;;
80910;SDS011;70359;51.420;7.032;2024-01-16T00:43:55;1.7;;;1.6;;
80910;SDS011;70359;51.420;7.032;2024-01-16T00:46:20;1.7;;;1.6;;
80910;SDS011;70359;51.420;7.032;2024-01-16T00:48:45;2.1;;;1.9;;
80910;SDS011;70359;51.420;7.032;2024-01-16T00:51:10;2.1;;;1.9;;
80910;SDS011;70359;51.420;7.032;2024-01-16T00:53:39;1.9;;;1.7;;
80910;SDS011;70359;51.420;7.032;2024-01-16T00:56:04;1.9;;;1.7;;
80910;SDS011;70359;51.420;7.032;2024-01-16T00:58:25;2.1;;;1.8;;
80910;SDS011;70359;51.420;7.032;2024-01-16T01:00:50;2.1;;;1.8;;
80910;SDS011;70359;51.420;7.032;2024-01-16T01:03:15;2;;;1.8;;
80910;SDS011;70359;51.420;7.032;2024-01-16T01:05:40;2;;;1.8;;
80910;SDS011;70359;51.420;7.032;2024-01-16T01:08:05;2;;;1.8;;
80910;SDS011;70359;51.420;7.032;2024-01-16T01:10:34;2.2;;;2;;
80910;SDS011;70359;51.420;7.032;2024-01-16T01:12:55;2.2;;;2;;
80910;SDS011;70359;51.420;7.032;2024-01-16T01:15:20;2.6;;;2.1;;
80910;SDS011;70359;51.420;7.032;2024-01-16T01:17:49;2.6;;;2.1;;
80910;SDS011;70359;51.420;7.032;2024-01-16T01:20:10;1.3;;;1.2;;
80910;SDS011;70359;51.420;7.032;2024-01-16T01:22:35;1.3;;;1.2;;
80910;SDS011;70359;51.420;7.032;2024-01-16T01:25:00;1.5;;;1.4;;
80910;SDS011;70359;51.420;7.032;2024-01-16T01:27:25;1.5;;;1.4;;
80910;SDS011;70359;51.420;7.032;2024-01-16T01:29:50;1.5;;;1.4;;
80910;SDS011;70359;51.420;7.032;2024-01-16T01:32:15;1.5;;;1.4;;
80910;SDS011;70359;51.420;7.032;2024-01-16T01:34:41;2.6;;;1.8;;
80910;SDS011;70359;51.420;7.032;2024-01-16T01:37:05;2.6;;;1.8;;
80910;SDS011;70359;51.420;7.032;2024-01-16T01:39:30;2.4;;;1.7;;
80910;SDS011;70359;51.420;7.032;2024-01-16T01:41:55;2.4;;;1.7;;
80910;SDS011;70359;51.420;7.032;2024-01-16T01:44:20;4.3;;;1.8;;
80910;SDS011;70359;51.420;7.032;2024-01-16T01:46:45;4.3;;;1.8;;
80910;SDS011;70359;51.420;7.032;2024-01-16T01:49:11;6.3;;;1.9;;
80910;SDS011;70359;51.420;7.032;2024-01-16T01:51:35;6.3;;;1.9;;
80910;SDS011;70359;51.420;7.032;2024-01-16T01:54:01;1.7;;;1.6;;
80910;SDS011;70359;51.420;7.032;2024-01-16T01:56:26;1.7;;;1.6;;
80910;SDS011;70359;51.420;7.032;2024-01-16T01:58:53;2.2;;;1.9;;
80910;SDS011;70359;51.420;7.032;2024-01-16T02:01:16;2.2;;;1.9;;
80910;SDS011;70359;51.420;7.032;2024-01-16T02:03:43;2.4;;;2;;
80910;SDS011;70359;51.420;7.032;2024-01-16T02:06:05;2.4;;;2;;
80910;SDS011;70359;51.420;7.032;2024-01-16T02:08:30;4.2;;;2.5;;
80910;SDS011;70359;51.420;7.032;2024-01-16T02:10:55;4.2;;;2.5;;
80910;SDS011;70359;51.420;7.032;2024-01-16T02:13:20;4;;;2.5;;
80910;SDS011;70359;51.420;7.032;2024-01-16T02:15:45;4;;;2.5;;
80910;SDS011;70359;51.420;7.032;2024-01-16T02:18:10;4;;;2.5;;
80910;SDS011;70359;51.420;7.032;2024-01-16T02:20:35;2.8;;;2.5;;
80910;SDS011;70359;51.420;7.032;2024-01-16T02:23:03;2.8;;;2.5;;
80910;SDS011;70359;51.420;7.032;2024-01-16T02:25:25;3;;;2.7;;
80910;SDS011;70359;51.420;7.032;2024-01-16T02:27:50;3;;;2.7;;
80910;SDS011;70359;51.420;7.032;2024-01-16T02:30:15;3.9;;;2.7;;
80910;SDS011;70359;51.420;7.032;2024-01-16T02:32:40;3.9;;;2.7;;
80910;SDS011;70359;51.420;7.032;2024-01-16T02:35:05;2.6;;;2.4;;
80910;SDS011;70359;51.420;7.032;2024-01-16T02:37:30;2.6;;;2.4;;
80910;SDS011;70359;51.420;7.032;2024-01-16T02:39:55;2.8;;;2.6;;
80910;SDS011;70359;51.420;7.032;2024-01-16T02:42:20;2.8;;;2.6;;
80910;SDS011;70359;51.420;7.032;2024-01-16T02:44:49;3.7;;;3.1;;
80910;SDS011;70359;51.420;7.032;2024-01-16T02:47:10;3.7;;;3.1;;
80910;SDS011;70359;51.420;7.032;2024-01-16T02:49:35;10.4;;;3.5;;
80910;SDS011;70359;51.420;7.032;2024-01-16T02:52:00;10.4;;;3.5;;
80910;SDS011;70359;51.420;7.032;2024-01-16T02:54:29;4.9;;;4.2;;
80910;SDS011;70359;51.420;7.032;2024-01-16T02:56:50;4.9;;;4.2;;
80910;SDS011;70359;51.420;7.032;2024-01-16T02:59:15;3.9;;;3.6;;
80910;SDS011;70359;51.420;7.032;2024-01-16T03:01:40;3.9;;;3.6;;
80910;SDS011;70359;51.420;7.032;2024-01-16T03:04:05;7.2;;;4.4;;
80910;SDS011;70359;51.420;7.032;2024-01-16T03:06:30;7.2;;;4.4;;
80910;SDS011;70359;51.420;7.032;2024-01-16T03:08:55;5.8;;;4.9;;
80910;SDS011;70359;51.420;7.032;2024-01-16T03:11:20;5.8;;;4.9;;
80910;SDS011;70359;51.420;7.032;2024-01-16T03:13:45;5.3;;;4.8;;
80910;SDS011;70359;51.420;7.032;2024-01-16T03:16:10;5.3;;;4.8;;
80910;SDS011;70359;51.420;7.032;2024-01-16T03:18:35;5.8;;;5.2;;
80910;SDS011;70359;51.420;7.032;2024-01-16T03:21:00;5.8;;;5.2;;
80910;SDS011;70359;51.420;7.032;2024-01-16T03:23:25;9.5;;;6.9;;
80910;SDS011;70359;51.420;7.032;2024-01-16T03:25:50;9.5;;;6.9;;
80910;SDS011;70359;51.420;7.032;2024-01-16T03:28:19;7.5;;;6.3;;
80910;SDS011;70359;51.420;7.032;2024-01-16T03:30:44;7.5;;;6.3;;
80910;SDS011;70359;51.420;7.032;2024-01-16T03:33:09;7.5;;;6.3;;
80910;SDS011;70359;51.420;7.032;2024-01-16T03:35:30;8.3;;;5.8;;
80910;SDS011;70359;51.420;7.032;2024-01-16T03:37:55;8.3;;;5.8;;
80910;SDS011;70359;51.420;7.032;2024-01-16T03:40:20;5.1;;;4.6;;
80910;SDS011;70359;51.420;7.032;2024-01-16T03:42:45;5.1;;;4.6;;
80910;SDS011;70359;51.420;7.032;2024-01-16T03:45:14;9.9;;;5.1;;
80910;SDS011;70359;51.420;7.032;2024-01-16T03:47:35;9.9;;;5.1;;
80910;SDS011;70359;51.420;7.032;2024-01-16T03:50:00;5.8;;;5.2;;
80910;SDS011;70359;51.420;7.032;2024-01-16T03:52:25;5.8;;;5.2;;
80910;SDS011;70359;51.420;7.032;2024-01-16T03:54:50;5.9;;;5.2;;
80910;SDS011;70359;51.420;7.032;2024-01-16T03:57:15;5.9;;;5.2;;
80910;SDS011;70359;51.420;7.032;2024-01-16T03:59:40;6.3;;;5.7;;
80910;SDS011;70359;51.420;7.032;2024-01-16T04:02:05;6.3;;;5.7;;
80910;SDS011;70359;51.420;7.032;2024-01-16T04:04:30;5.4;;;4.9;;
80910;SDS011;70359;51.420;7.032;2024-01-16T04:06:59;5.4;;;4.9;;
80910;SDS011;70359;51.420;7.032;2024-01-16T04:09:20;6.3;;;5.5;;
80910;SDS011;70359;51.420;7.032;2024-01-16T04:11:49;6.3;;;5.5;;
80910;SDS011;70359;51.420;7.032;2024-01-16T04:14:10;6;;;5.5;;
80910;SDS011;70359;51.420;7.032;2024-01-16T04:16:35;6;;;5.5;;
80910;SDS011;70359;51.420;7.032;2024-01-16T04:19:04;6.2;;;5;;
80910;SDS011;70359;51.420;7.032;2024-01-16T04:21:25;6.2;;;5;;
80910;SDS011;70359;51.420;7.032;2024-01-16T04:23:50;5.4;;;4.9;;
80910;SDS011;70359;51.420;7.032;2024-01-16T04:26:15;5.4;;;4.9;;
80910;SDS011;70359;51.420;7.032;2024-01-16T04:28:40;6.9;;;5.4;;
80910;SDS011;70359;51.420;7.032;2024-01-16T04:31:05;6.9;;;5.4;;
80910;SDS011;70359;51.420;7.032;2024-01-16T04:33:30;5.7;;;5;;
80910;SDS011;70359;51.420;7.032;2024-01-16T04:35:55;5.7;;;5;;
80910;SDS011;70359;51.420;7.032;2024-01-16T04:38:20;6.3;;;4.6;;
80910;SDS011;70359;51.420;7.032;2024-01-16T04:40:45;6.3;;;4.6;;
80910;SDS011;70359;51.420;7.032;2024-01-16T04:43:10;4.9;;;4;;
80910;SDS011;70359;51.420;7.032;2024-01-16T04:45:35;4.9;;;4;;
80910;SDS011;70359;51.420;7.032;2024-01-16T04:48:04;4.9;;;4;;
80910;SDS011;70359;51.420;7.032;2024-01-16T04:50:25;6.2;;;4.9;;
80910;SDS011;70359;51.420;7.032;2024-01-16T04:52:54;6.2;;;4.9;;
80910;SDS011;70359;51.420;7.032;2024-01-16T04:55:15;4.6;;;3.7;;
80910;SDS011;70359;51.420;7.032;2024-01-16T04:57:40;4.6;;;3.7;;
80910;SDS011;70359;51.420;7.032;2024-01-16T05:00:06;5.6;;;3.2;;
80910;SDS011;70359;51.420;7.032;2024-01-16T05:02:30;5.6;;;3.2;;
80910;SDS011;70359;51.420;7.032;2024-01-16T05:04:55;3.5;;;3.2;;
80910;SDS011;70359;51.420;7.032;2024-01-16T05:07:23;3.5;;;3.2;;
80910;SDS011;70359;51.420;7.032;2024-01-16T05:09:45;2.4;;;2.2;;
80910;SDS011;70359;51.420;7.032;2024-01-16T05:12:14;2.4;;;2.2;;
80910;SDS011;70359;51.420;7.032;2024-01-16T05:14:35;2.5;;;2.3;;
80910;SDS011;70359;51.420;7.032;2024-01-16T05:17:00;2.5;;;2.3;;
80910;SDS011;70359;51.420;7.032;2024-01-16T05:19:25;2.6;;;2.2;;
80910;SDS011;70359;51.420;7.032;2024-01-16T05:21:50;2.6;;;2.2;;
80910;SDS011;70359;51.420;7.032;2024-01-16T05:24:15;3.5;;;2.6;;
80910;SDS011;70359;51.420;7.032;2024-01-16T05:26:40;3.5;;;2.6;;
80910;SDS011;70359;51.420;7.032;2024-01-16T05:29:05;2.8;;;2.5;;
80910;SDS011;70359;51.420;7.032;2024-01-16T05:31:34;2.8;;;2.5;;
80910;SDS011;70359;51.420;7.032;2024-01-16T05:33:55;2.7;;;2.3;;
80910;SDS011;70359;51.420;7.032;2024-01-16T05:36:20;2.7;;;2.3;;
80910;SDS011;70359;51.420;7.032;2024-01-16T05:38:45;2.5;;;2.2;;
80910;SDS011;70359;51.420;7.032;2024-01-16T05:41:10;2.5;;;2.2;;
80910;SDS011;70359;51.420;7.032;2024-01-16T05:43:39;2.7;;;2.4;;
80910;SDS011;70359;51.420;7.032;2024-01-16T05:46:00;2.7;;;2.4;;
80910;SDS011;70359;51.420;7.032;2024-01-16T05:48:25;2.8;;;2.6;;
80910;SDS011;70359;51.420;7.032;2024-01-16T05:50:54;2.8;;;2.6;;
80910;SDS011;70359;51.420;7.032;2024-01-16T05:53:15;8;;;3.5;;
80910;SDS011;70359;51.420;7.032;2024-01-16T05:55:40;8;;;3.5;;
80910;SDS011;70359;51.420;7.032;2024-01-16T05:58:11;4.3;;;3.8;;
80910;SDS011;70359;51.420;7.032;2024-01-16T06:00:34;4.3;;;3.8;;
80910;SDS011;70359;51.420;7.032;2024-01-16T06:02:55;4.3;;;3.8;;
80910;SDS011;70359;51.420;7.032;2024-01-16T06:05:20;7.9;;;3.8;;
80910;SDS011;70359;51.420;7.032;2024-01-16T06:07:45;7.9;;;3.8;;
80910;SDS011;70359;51.420;7.032;2024-01-16T06:10:15;5.4;;;4.1;;
80910;SDS011;70359;51.420;7.032;2024-01-16T06:12:35;5.4;;;4.1;;
80910;SDS011;70359;51.420;7.032;2024-01-16T06:15:05;4;;;3.6;;
80910;SDS011;70359;51.420;7.032;2024-01-16T06:17:25;4;;;3.6;;
80910;SDS011;70359;51.420;7.032;2024-01-16T06:19:50;7.4;;;4.6;;
80910;SDS011;70359;51.420;7.032;2024-01-16T06:22:15;7.4;;;4.6;;
80910;SDS011;70359;51.420;7.032;2024-01-16T06:24:40;5.3;;;4.2;;
80910;SDS011;70359;51.420;7.032;2024-01-16T06:27:06;5.3;;;4.2;;
80910;SDS011;70359;51.420;7.032;2024-01-16T06:29:30;5.1;;;4.6;;
80910;SDS011;70359;51.420;7.032;2024-01-16T06:31:55;5.1;;;4.6;;
80910;SDS011;70359;51.420;7.032;2024-01-16T06:34:20;5.5;;;5;;
80910;SDS011;70359;51.420;7.032;2024-01-16T06:36:45;5.5;;;5;;
80910;SDS011;70359;51.420;7.032;2024-01-16T06:39:10;6.7;;;5.2;;
80910;SDS011;70359;51.420;7.032;2024-01-16T06:41:35;6.7;;;5.2;;
80910;SDS011;70359;51.420;7.032;2024-01-16T06:44:00;6.4;;;5.3;;
80910;SDS011;70359;51.420;7.032;2024-01-16T06:46:29;6.4;;;5.3;;
80910;SDS011;70359;51.420;7.032;2024-01-16T06:48:54;4.7;;;4.1;;
80910;SDS011;70359;51.420;7.032;2024-01-16T06:51:19;4.7;;;4.1;;
80910;SDS011;70359;51.420;7.032;2024-01-16T06:53:44;4.8;;;4.1;;
80910;SDS011;70359;51.420;7.032;2024-01-16T06:56:06;4.8;;;4.1;;
80910;SDS011;70359;51.420;7.032;2024-01-16T06:58:30;5.9;;;3.7;;
80910;SDS011;70359;51.420;7.032;2024-01-16T07:00:55;5.9;;;3.7;;
80910;SDS011;70359;51.420;7.032;2024-01-16T07:03:21;3.5;;;3.2;;
80910;SDS011;70359;51.420;7.032;2024-01-16T07:05:45;3.5;;;3.2;;
80910;SDS011;70359;51.420;7.032;2024-01-16T07:08:11;3.9;;;3.5;;
80910;SDS011;70359;51.420;7.032;2024-01-16T07:10:36;3.9;;;3.5;;
80910;SDS011;70359;51.420;7.032;2024-01-16T07:13:01;3.9;;;3.5;;
80910;SDS011;70359;51.420;7.032;2024-01-16T07:15:26;5.6;;;2.9;;
80910;SDS011;70359;51.420;7.032;2024-01-16T07:17:51;5.6;;;2.9;;
80910;SDS011;70359;51.420;7.032;2024-01-16T07:20:16;2.6;;;2.4;;
80910;SDS011;70359;51.420;7.032;2024-01-16T07:22:41;2.6;;;2.4;;
80910;SDS011;70359;51.420;7.032;2024-01-16T07:25:06;3.2;;;2.2;;
80910;SDS011;70359;51.420;7.032;2024-01-16T07:27:31;3.2;;;2.2;;
80910;SDS011;70359;51.420;7.032;2024-01-16T07:29:56;5.2;;;2.8;;
80910;SDS011;70359;51.420;7.032;2024-01-16T07:32:21;5.2;;;2.8;;
80910;SDS011;70359;51.420;7.032;2024-01-16T07:34:46;3.3;;;2.3;;
80910;SDS011;70359;51.420;7.032;2024-01-16T07:37:11;3.3;;;2.3;;
80910;SDS011;70359;51.420;7.032;2024-01-16T07:39:36;5;;;2.9;;
80910;SDS011;70359;51.420;7.032;2024-01-16T07:42:01;5;;;2.9;;
80910;SDS011;70359;51.420;7.032;2024-01-16T07:44:26;2.3;;;2.1;;
80910;SDS011;70359;51.420;7.032;2024-01-16T07:46:51;2.3;;;2.1;;
80910;SDS011;70359;51.420;7.032;2024-01-16T07:49:16;3.5;;;2.5;;
80910;SDS011;70359;51.420;7.032;2024-01-16T07:51:41;3.5;;;2.5;;
80910;SDS011;70359;51.420;7.032;2024-01-16T07:54:09;2.7;;;1.9;;
80910;SDS011;70359;51.420;7.032;2024-01-16T07:56:31;2.7;;;1.9;;
80910;SDS011;70359;51.420;7.032;2024-01-16T07:58:56;3.1;;;2.2;;
80910;SDS011;70359;51.420;7.032;2024-01-16T08:01:21;3.1;;;2.2;;
80910;SDS011;70359;51.420;7.032;2024-01-16T08:03:46;2.1;;;1.8;;
80910;SDS011;70359;51.420;7.032;2024-01-16T08:06:11;2.1;;;1.8;;
80910;SDS011;70359;51.420;7.032;2024-01-16T08:08:36;3.4;;;2;;
80910;SDS011;70359;51.420;7.032;2024-01-16T08:11:01;3.4;;;2;;
80910;SDS011;70359;51.420;7.032;2024-01-16T08:13:26;2.7;;;1.8;;
80910;SDS011;70359;51.420;7.032;2024-01-16T08:15:51;2.7;;;1.8;;
80910;SDS011;70359;51.420;7.032;2024-01-16T08:18:16;3;;;2.1;;
80910;SDS011;70359;51.420;7.032;2024-01-16T08:20:41;3;;;2.1;;
80910;SDS011;70359;51.420;7.032;2024-01-16T08:23:06;4.2;;;1.8;;
80910;SDS011;70359;51.420;7.032;2024-01-16T08:25:31;4.2;;;1.8;;
80910;SDS011;70359;51.420;7.032;2024-01-16T08:27:56;4.2;;;1.8;;
80910;SDS011;70359;51.420;7.032;2024-01-16T08:30:21;3.4;;;1.5;;
80910;SDS011;70359;51.420;7.032;2024-01-16T08:32:46;3.4;;;1.5;;
80910;SDS011;70359;51.420;7.032;2024-01-16T08:35:11;1.8;;;1.6;;
80910;SDS011;70359;51.420;7.032;2024-01-16T08:37:40;1.8;;;1.6;;
80910;SDS011;70359;51.420;7.032;2024-01-16T08:40:01;1.8;;;1.5;;
80910;SDS011;70359;51.420;7.032;2024-01-16T08:42:26;1.8;;;1.5;;
80910;SDS011;70359;51.420;7.032;2024-01-16T08:44:51;2.6;;;1.5;;
80910;SDS011;70359;51.420;7.032;2024-01-16T08:47:20;2.6;;;1.5;;
80910;SDS011;70359;51.420;7.032;2024-01-16T08:49:45;2.4;;;1.5;;
80910;SDS011;70359;51.420;7.032;2024-01-16T08:52:06;2.4;;;1.5;;
80910;SDS011;70359;51.420;7.032;2024-01-16T08:54:31;1.5;;;1.3;;
80910;SDS011;70359;51.420;7.032;2024-01-16T08:57:00;1.5;;;1.3;;
80910;SDS011;70359;51.420;7.032;2024-01-16T08:59:25;4.2;;;1.7;;
80910;SDS011;70359;51.420;7.032;2024-01-16T09:01:50;4.2;;;1.7;;
80910;SDS011;70359;51.420;7.032;2024-01-16T09:04:11;4.4;;;1.6;;
80910;SDS011;70359;51.420;7.032;2024-01-16T09:06:36;4.4;;;1.6;;
80910;SDS011;70359;51.420;7.032;2024-01-16T09:09:01;3.4;;;1.6;;
80910;SDS011;70359;51.420;7.032;2024-01-16T09:11:26;3.4;;;1.6;;
80910;SDS011;70359;51.420;7.032;2024-01-16T09:13:51;1.2;;;1.1;;
80910;SDS011;70359;51.420;7.032;2024-01-16T09:16:16;1.2;;;1.1;;
80910;SDS011;70359;51.420;7.032;2024-01-16T09:18:41;1.8;;;1.2;;
80910;SDS011;70359;51.420;7.032;2024-01-16T09:21:06;1.8;;;1.2;;
80910;SDS011;70359;51.420;7.032;2024-01-16T09:23:31;3.4;;;1.4;;
80910;SDS011;70359;51.420;7.032;2024-01-16T09:25:56;3.4;;;1.4;;
80910;SDS011;70359;51.420;7.032;2024-01-16T09:28:25;1.7;;;1.5;;
80910;SDS011;70359;51.420;7.032;2024-01-16T09:30:46;1.7;;;1.5;;
80910;SDS011;70359;51.420;7.032;2024-01-16T09:33:11;2.3;;;1.6;;
80910;SDS011;70359;51.420;7.032;2024-01-16T09:35:36;2.3;;;1.6;;
80910;SDS011;70359;51.420;7.032;2024-01-16T09:38:01;2.5;;;1.6;;
80910;SDS011;70359;51.420;7.032;2024-01-16T09:40:26;2.5;;;1.6;;
80910;SDS011;70359;51.420;7.032;2024-01-16T09:42:51;2.5;;;1.6;;
80910;SDS011;70359;51.420;7.032;2024-01-16T09:45:19;1.9;;;1.4;;
80910;SDS011;70359;51.420;7.032;2024-01-16T09:47:41;1.9;;;1.4;;
80910;SDS011;70359;51.420;7.032;2024-01-16T09:50:06;1.8;;;1.3;;
80910;SDS011;70359;51.420;7.032;2024-01-16T09:52:31;1.8;;;1.3;;
80910;SDS011;70359;51.420;7.032;2024-01-16T09:54:56;1.8;;;1.5;;
80910;SDS011;70359;51.420;7.032;2024-01-16T09:57:25;1.8;;;1.5;;
80910;SDS011;70359;51.420;7.032;2024-01-16T09:59:50;2.5;;;1.8;;
80910;SDS011;70359;51.420;7.032;2024-01-16T10:02:13;2.5;;;1.8;;
80910;SDS011;70359;51.420;7.032;2024-01-16T10:04:40;1.8;;;1.6;;
80910;SDS011;70359;51.420;7.032;2024-01-16T10:07:01;1.8;;;1.6;;
80910;SDS011;70359;51.420;7.032;2024-01-16T10:09:26;1.3;;;1.1;;
80910;SDS011;70359;51.420;7.032;2024-01-16T10:11:51;1.3;;;1.1;;
80910;SDS011;70359;51.420;7.032;2024-01-16T10:14:17;3.5;;;2.2;;
80910;SDS011;70359;51.420;7.032;2024-01-16T10:17:00;3.5;;;2.2;;
80910;SDS011;70359;51.420;7.032;2024-01-16T10:19:11;3.3;;;1.9;;
80910;SDS011;70359;51.420;7.032;2024-01-16T10:21:31;3.3;;;1.9;;
80910;SDS011;70359;51.420;7.032;2024-01-16T10:24:14;1.8;;;1.7;;
80910;SDS011;70359;51.420;7.032;2024-01-16T10:26:21;1.8;;;1.7;;
80910;SDS011;70359;51.420;7.032;2024-01-16T10:28:46;10.7;;;1.7;;
80910;SDS011;70359;51.420;7.032;2024-01-16T10:31:12;10.7;;;1.7;;
80910;SDS011;70359;51.420;7.032;2024-01-16T10:33:36;3.4;;;1.8;;
80910;SDS011;70359;51.420;7.032;2024-01-16T10:36:16;3.4;;;1.8;;
80910;SDS011;70359;51.420;7.032;2024-01-16T10:38:26;1.5;;;1.4;;
80910;SDS011;70359;51.420;7.032;2024-01-16T10:41:08;1.5;;;1.4;;
80910;SDS011;70359;51.420;7.032;2024-01-16T10:43:21;2.4;;;1.6;;
80910;SDS011;70359;51.420;7.032;2024-01-16T10:45:41;2.4;;;1.6;;
80910;SDS011;70359;51.420;7.032;2024-01-16T10:48:07;3.7;;;1.5;;
80910;SDS011;70359;51.420;7.032;2024-01-16T10:50:32;3.7;;;1.5;;
80910;SDS011;70359;51.420;7.032;2024-01-16T10:52:59;2.7;;;1.9;;
80910;SDS011;70359;51.420;7.032;2024-01-16T10:55:24;2.7;;;1.9;;
80910;SDS011;70359;51.420;7.032;2024-01-16T10:57:47;2.7;;;1.9;;
80910;SDS011;70359;51.420;7.032;2024-01-16T11:00:12;5.3;;;1.8;;
80910;SDS011;70359;51.420;7.032;2024-01-16T11:02:40;5.3;;;1.8;;
80910;SDS011;70359;51.420;7.032;2024-01-16T11:05:01;6.7;;;2;;
80910;SDS011;70359;51.420;7.032;2024-01-16T11:07:31;6.7;;;2;;
80910;SDS011;70359;51.420;7.032;2024-01-16T11:09:56;1.9;;;1.6;;
80910;SDS011;70359;51.420;7.032;2024-01-16T11:12:16;1.9;;;1.6;;
80910;SDS011;70359;51.420;7.032;2024-01-16T11:14:45;2.4;;;1.5;;
80910;SDS011;70359;51.420;7.032;2024-01-16T11:17:07;2.4;;;1.5;;
80910;SDS011;70359;51.420;7.032;2024-01-16T11:19:36;4.9;;;1.8;;
80910;SDS011;70359;51.420;7.032;2024-01-16T11:21:56;4.9;;;1.8;;
80910;SDS011;70359;51.420;7.032;2024-01-16T11:24:25;2.7;;;1.5;;
80910;SDS011;70359;51.420;7.032;2024-01-16T11:26:46;2.7;;;1.5;;
80910;SDS011;70359;51.420;7.032;2024-01-16T11:29:39;2.4;;;1.6;;
80910;SDS011;70359;51.420;7.032;2024-01-16T11:31:36;2.4;;;1.6;;
80910;SDS011;70359;51.420;7.032;2024-01-16T11:34:02;2.4;;;2;;
80910;SDS011;70359;51.420;7.032;2024-01-16T11:36:52;2.4;;;2;;
80910;SDS011;70359;51.420;7.032;2024-01-16T11:38:56;4.9;;;2.3;;
80910;SDS011;70359;51.420;7.032;2024-01-16T11:43:41;4.5;;;1.8;;
80910;SDS011;70359;51.420;7.032;2024-01-16T11:46:07;4.5;;;1.8;;
80910;SDS011;70359;51.420;7.032;2024-01-16T11:48:31;3.9;;;1.8;;
80910;SDS011;70359;51.420;7.032;2024-01-16T11:50:56;3.9;;;1.8;;
80910;SDS011;70359;51.420;7.032;2024-01-16T11:53:37;6.3;;;2;;
80910;SDS011;70359;51.420;7.032;2024-01-16T11:55:54;6.3;;;2;;
80910;SDS011;70359;51.420;7.032;2024-01-16T11:58:32;2.9;;;1.6;;
80910;SDS011;70359;51.420;7.032;2024-01-16T12:00:40;2.9;;;1.6;;
80910;SDS011;70359;51.420;7.032;2024-01-16T12:03:13;3.4;;;2.1;;
80910;SDS011;70359;51.420;7.032;2024-01-16T12:05:26;3.4;;;2.1;;
80910;SDS011;70359;51.420;7.032;2024-01-16T12:07:52;3.4;;;2.1;;
80910;SDS011;70359;51.420;7.032;2024-01-16T12:10:16;2.1;;;1.6;;
80910;SDS011;70359;51.420;7.032;2024-01-16T12:12:45;2.1;;;1.6;;
80910;SDS011;70359;51.420;7.032;2024-01-16T12:15:07;2.6;;;1.7;;
80910;SDS011;70359;51.420;7.032;2024-01-16T12:17:31;2.6;;;1.7;;
80910;SDS011;70359;51.420;7.032;2024-01-16T12:19:56;2.8;;;1.9;;
80910;SDS011;70359;51.420;7.032;2024-01-16T12:22:21;2.8;;;1.9;;
80910;SDS011;70359;51.420;7.032;2024-01-16T12:24:46;1.6;;;1.5;;
80910;SDS011;70359;51.420;7.032;2024-01-16T12:27:12;1.6;;;1.5;;
80910;SDS011;70359;51.420;7.032;2024-01-16T12:29:36;2.1;;;1.8;;
80910;SDS011;70359;51.420;7.032;2024-01-16T12:32:08;2.1;;;1.8;;
80910;SDS011;70359;51.420;7.032;2024-01-16T12:34:26;12.8;;;1.8;;
80910;SDS011;70359;51.420;7.032;2024-01-16T12:37:08;12.8;;;1.8;;
80910;SDS011;70359;51.420;7.032;2024-01-16T12:39:18;2;;;1.8;;
80910;SDS011;70359;51.420;7.032;2024-01-16T12:41:47;2;;;1.8;;
80910;SDS011;70359;51.420;7.032;2024-01-16T12:44:06;3;;;1.9;;
80910;SDS011;70359;51.420;7.032;2024-01-16T12:46:35;3;;;1.9;;
80910;SDS011;70359;51.420;7.032;2024-01-16T12:48:59;2.9;;;2;;
80910;SDS011;70359;51.420;7.032;2024-01-16T12:51:24;2.9;;;2;;
80910;SDS011;70359;51.420;7.032;2024-01-16T12:53:50;2.5;;;1.8;;
80910;SDS011;70359;51.420;7.032;2024-01-16T12:56:11;2.5;;;1.8;;
80910;SDS011;70359;51.420;7.032;2024-01-16T12:58:36;2.5;;;1.8;;
80910;SDS011;70359;51.420;7.032;2024-01-16T13:01:24;2.5;;;1.8;;
80910;SDS011;70359;51.420;7.032;2024-01-16T13:03:26;2.1;;;1.7;;
80910;SDS011;70359;51.420;7.032;2024-01-16T13:05:58;2.1;;;1.7;;
80910;SDS011;70359;51.420;7.032;2024-01-16T13:08:22;3.4;;;2;;
80910;SDS011;70359;51.420;7.032;2024-01-16T13:10:45;3.4;;;2;;
80910;SDS011;70359;51.420;7.032;2024-01-16T13:13:17;3.5;;;2;;
80910;SDS011;70359;51.420;7.032;2024-01-16T13:15:31;3.5;;;2;;
80910;SDS011;70359;51.420;7.032;2024-01-16T13:17:56;1.8;;;1.7;;
80910;SDS011;70359;51.420;7.032;2024-01-16T13:20:21;1.8;;;1.7;;
80910;SDS011;70359;51.420;7.032;2024-01-16T13:22:48;1.8;;;1.7;;
80910;SDS011;70359;51.420;7.032;2024-01-16T13:25:11;2.7;;;2.1;;
80910;SDS011;70359;51.420;7.032;2024-01-16T13:27:36;2.7;;;2.1;;
80910;SDS011;70359;51.420;7.032;2024-01-16T13:30:01;3.4;;;1.8;;
80910;SDS011;70359;51.420;7.032;2024-01-16T13:32:26;3.4;;;1.8;;
80910;SDS011;70359;51.420;7.032;2024-01-16T13:34:51;2.1;;;1.8;;
80910;SDS011;70359;51.420;7.032;2024-01-16T13:37:20;2.1;;;1.8;;
80910;SDS011;70359;51.420;7.032;2024-01-16T13:39:41;2.7;;;1.8;;
80910;SDS011;70359;51.420;7.032;2024-01-16T13:42:06;2.7;;;1.8;;
80910;SDS011;70359;51.420;7.032;2024-01-16T13:44:31;2.5;;;1.9;;
80910;SDS011;70359;51.420;7.032;2024-01-16T13:46:56;2.5;;;1.9;;
80910;SDS011;70359;51.420;7.032;2024-01-16T13:49:21;2.1;;;1.6;;
80910;SDS011;70359;51.420;7.032;2024-01-16T13:51:47;2.1;;;1.6;;
80910;SDS011;70359;51.420;7.032;2024-01-16T13:54:11;3.2;;;2.1;;
80910;SDS011;70359;51.420;7.032;2024-01-16T13:56:36;3.2;;;2.1;;
80910;SDS011;70359;51.420;7.032;2024-01-16T13:59:01;2.5;;;1.9;;
80910;SDS011;70359;51.420;7.032;2024-01-16T14:01:27;2.5;;;1.9;;
80910;SDS011;70359;51.420;7.032;2024-01-16T14:03:51;2.6;;;2.2;;
80910;SDS011;70359;51.420;7.032;2024-01-16T14:06:20;2.6;;;2.2;;
80910;SDS011;70359;51.420;7.032;2024-01-16T14:08:41;2.8;;;2.2;;
80910;SDS011;70359;51.420;7.032;2024-01-16T14:11:06;2.8;;;2.2;;
80910;SDS011;70359;51.420;7.032;2024-01-16T14:13:32;3.1;;;1.7;;
80910;SDS011;70359;51.420;7.032;2024-01-16T14:16:00;3.1;;;1.7;;
80910;SDS011;70359;51.420;7.032;2024-01-16T14:18:25;2.4;;;1.9;;
80910;SDS011;70359;51.420;7.032;2024-01-16T14:20:46;2.4;;;1.9;;
80910;SDS011;70359;51.420;7.032;2024-01-16T14:23:11;4.3;;;1.9;;
80910;SDS011;70359;51.420;7.032;2024-01-16T14:25:36;4.3;;;1.9;;
80910;SDS011;70359;51.420;7.032;2024-01-16T14:28:02;2.5;;;1.7;;
80910;SDS011;70359;51.420;7.032;2024-01-16T14:30:27;2.5;;;1.7;;
80910;SDS011;70359;51.420;7.032;2024-01-16T14:32:53;2.2;;;2;;
80910;SDS011;70359;51.420;7.032;2024-01-16T14:35:16;2.2;;;2;;
80910;SDS011;70359;51.420;7.032;2024-01-16T14:37:41;2.2;;;2;;
80910;SDS011;70359;51.420;7.032;2024-01-16T14:40:07;3;;;2.2;;
80910;SDS011;70359;51.420;7.032;2024-01-16T14:42:31;3;;;2.2;;
80910;SDS011;70359;51.420;7.032;2024-01-16T14:44:56;2.9;;;2;;
80910;SDS011;70359;51.420;7.032;2024-01-16T14:47:21;2.9;;;2;;
80910;SDS011;70359;51.420;7.032;2024-01-16T14:49:46;2.3;;;2.1;;
80910;SDS011;70359;51.420;7.032;2024-01-16T14:52:11;2.3;;;2.1;;
80910;SDS011;70359;51.420;7.032;2024-01-16T14:54:36;1.7;;;1.6;;
80910;SDS011;70359;51.420;7.032;2024-01-16T14:57:05;1.7;;;1.6;;
80910;SDS011;70359;51.420;7.032;2024-01-16T14:59:26;5.2;;;2.1;;
80910;SDS011;70359;51.420;7.032;2024-01-16T15:01:55;5.2;;;2.1;;
80910;SDS011;70359;51.420;7.032;2024-01-16T15:04:20;2.1;;;1.9;;
80910;SDS011;70359;51.420;7.032;2024-01-16T15:06:41;2.1;;;1.9;;